Terminal Aerodrome Forecast
Issued by NWS Memphis, TN

Home | Current Version | Previous Version | Text Only | Print | Product List | Glossary On
Versions: 1 2 3 4 5 6 7 8 9 10 11 12 13 14 15 16 17 18 19 20 21
645
FTUS44 KMEG 231556 AAA
TAFJBR
TAF AMD
KJBR 231556Z 2316/2412 19008KT P6SM SCT250
     FM231800 19014G23KT P6SM FEW040 SCT250
     FM240000 18011G17KT P6SM SCT250
     FM240400 19013G18KT P6SM FEW045 SCT250 WS020/19044KT=

USA.gov is the U.S. government's official web portal to all federal, state and local government web resources and services.